createdAt,value
2019-03-22T00:04:07.176Z,8.00
2019-03-22T00:08:20.223Z,7.40
2019-03-22T00:12:33.149Z,7.37
2019-03-22T00:16:46.477Z,8.10
2019-03-22T00:20:59.293Z,8.00
2019-03-22T00:25:12.227Z,8.37
2019-03-22T00:29:25.325Z,8.57
2019-03-22T00:33:38.280Z,7.83
2019-03-22T00:37:52.442Z,8.03
2019-03-22T00:42:05.434Z,7.80
2019-03-22T00:46:18.500Z,8.17
2019-03-22T00:50:31.734Z,8.23
2019-03-22T00:54:44.658Z,8.70
2019-03-22T00:58:57.597Z,8.47
2019-03-22T01:03:10.731Z,8.43
2019-03-22T01:07:23.888Z,8.70
2019-03-22T01:11:36.963Z,8.20
2019-03-22T01:15:50.126Z,8.60
2019-03-22T01:20:03.163Z,9.30
2019-03-22T01:24:16.085Z,9.03
2019-03-22T01:28:29.111Z,9.20
2019-03-22T01:32:41.938Z,9.00
2019-03-22T01:36:55.355Z,8.70
2019-03-22T01:41:08.504Z,8.50
2019-03-22T01:45:21.392Z,8.67
2019-03-22T01:49:34.467Z,10.00
2019-03-22T01:53:47.709Z,10.90
2019-03-22T01:58:00.945Z,10.20
2019-03-22T02:02:13.764Z,10.60
2019-03-22T02:06:26.855Z,9.93
2019-03-22T02:10:40.201Z,9.23
2019-03-22T02:14:53.232Z,10.57
2019-03-22T02:19:06.402Z,10.77
2019-03-22T02:23:19.628Z,10.77
2019-03-22T02:27:32.759Z,10.90
2019-03-22T02:31:45.566Z,11.83
2019-03-22T02:35:58.627Z,10.70
2019-03-22T02:40:11.853Z,10.50
2019-03-22T02:44:24.689Z,11.83
2019-03-22T02:48:37.880Z,12.10
2019-03-22T02:52:51.584Z,11.27
2019-03-22T02:57:05.228Z,12.90
2019-03-22T03:01:18.450Z,12.53
2019-03-22T03:05:31.357Z,12.23
2019-03-22T03:09:44.428Z,11.13
2019-03-22T03:13:57.630Z,13.00
2019-03-22T03:18:11.848Z,14.70
2019-03-22T03:22:24.927Z,13.63
2019-03-22T03:26:38.696Z,14.63
2019-03-22T03:30:51.898Z,14.07
2019-03-22T03:35:05.359Z,13.53
2019-03-22T03:39:18.573Z,14.40
2019-03-22T03:43:31.518Z,14.53
2019-03-22T03:47:44.720Z,14.73
2019-03-22T03:51:57.838Z,13.60
2019-03-22T03:56:10.811Z,15.17
2019-03-22T04:00:23.833Z,15.17
2019-03-22T04:04:37.118Z,15.80
2019-03-22T04:08:50.110Z,16.20
2019-03-22T04:13:03.235Z,17.33
2019-03-22T04:17:16.372Z,18.40
2019-03-22T04:21:30.139Z,18.63
2019-03-22T04:25:43.775Z,17.17
2019-03-22T04:29:57.417Z,18.07
2019-03-22T04:34:10.649Z,17.53
2019-03-22T04:38:23.864Z,17.03
2019-03-22T04:42:36.794Z,17.50
2019-03-22T04:46:50.028Z,20.93
2019-03-22T04:51:05.116Z,18.33
2019-03-22T04:55:18.940Z,19.53
2019-03-22T04:59:32.994Z,19.03
2019-03-22T05:03:46.625Z,19.33
2019-03-22T05:07:59.949Z,19.03
2019-03-22T05:12:15.341Z,18.00
2019-03-22T05:16:29.208Z,18.90
2019-03-22T05:20:44.136Z,17.50
2019-03-22T05:24:59.483Z,15.70
2019-03-22T05:29:14.471Z,15.43
2019-03-22T05:33:27.285Z,18.37
2019-03-22T05:37:40.316Z,16.27
2019-03-22T05:41:53.559Z,15.83
2019-03-22T05:46:06.468Z,15.53
2019-03-22T05:50:19.520Z,15.80
2019-03-22T05:54:33.173Z,17.00
2019-03-22T05:58:46.379Z,17.97
2019-03-22T06:02:59.208Z,16.90
2019-03-22T06:07:12.141Z,16.00
2019-03-22T06:11:25.377Z,17.03
2019-03-22T06:15:38.300Z,18.27
2019-03-22T06:19:52.664Z,19.63
2019-03-22T06:24:06.336Z,18.80
2019-03-22T06:28:20.324Z,20.30
2019-03-22T06:32:33.493Z,18.57
2019-03-22T06:36:47.160Z,20.33
2019-03-22T06:41:00.804Z,20.60
2019-03-22T06:45:14.652Z,17.93
2019-03-22T06:49:27.873Z,20.97
2019-03-22T06:53:40.640Z,21.90
2019-03-22T06:57:54.931Z,22.33
2019-03-22T07:02:07.774Z,26.90
2019-03-22T07:06:20.809Z,25.47
2019-03-22T07:10:34.142Z,25.67
2019-03-22T07:14:47.912Z,25.47
2019-03-22T07:19:01.137Z,27.47
2019-03-22T07:23:14.790Z,27.00
2019-03-22T07:27:28.001Z,25.80
2019-03-22T07:31:40.888Z,26.17
2019-03-22T07:35:54.070Z,24.97
2019-03-22T07:40:07.260Z,25.03
2019-03-22T07:44:20.125Z,24.47
2019-03-22T07:48:33.257Z,25.63
2019-03-22T07:52:46.925Z,26.47
2019-03-22T07:57:00.236Z,26.13
2019-03-22T08:01:13.168Z,24.77
2019-03-22T08:05:26.089Z,25.17
2019-03-22T08:09:39.506Z,24.27
2019-03-22T08:13:52.869Z,23.43
2019-03-22T08:18:06.543Z,23.27
2019-03-22T08:22:19.868Z,22.57
2019-03-22T08:26:33.172Z,22.40
2019-03-22T08:30:46.122Z,22.23
2019-03-22T08:34:59.328Z,22.40
2019-03-22T08:39:12.694Z,22.07
2019-03-22T08:43:25.944Z,20.67
2019-03-22T08:47:38.861Z,21.23
2019-03-22T08:51:51.889Z,20.27
2019-03-22T08:56:05.657Z,23.03
2019-03-22T09:00:18.807Z,22.63
2019-03-22T09:04:31.673Z,23.13
2019-03-22T09:08:47.593Z,21.23
2019-03-22T09:13:00.059Z,22.20
2019-03-22T09:17:13.240Z,22.77
2019-03-22T09:21:26.481Z,24.20
2019-03-22T09:25:39.503Z,25.17
2019-03-22T09:29:52.550Z,24.97
2019-03-22T09:34:05.771Z,23.33
2019-03-22T09:38:19.330Z,23.63
2019-03-22T09:42:33.184Z,23.27
2019-03-22T09:46:46.440Z,25.40
2019-03-22T09:50:59.247Z,24.93
2019-03-22T09:55:14.097Z,24.13
2019-03-22T09:59:27.016Z,22.37
2019-03-22T10:03:42.528Z,23.33
2019-03-22T10:07:54.865Z,21.40
2019-03-22T10:12:07.816Z,23.20
2019-03-22T10:16:21.186Z,22.83
2019-03-22T10:20:34.419Z,24.40
2019-03-22T10:24:47.556Z,25.97
2019-03-22T10:29:00.583Z,25.43
2019-03-22T10:33:22.489Z,25.77
2019-03-22T10:37:28.696Z,23.20
2019-03-22T10:41:41.552Z,23.83
2019-03-22T10:45:54.644Z,23.67
2019-03-22T10:50:07.681Z,24.37
2019-03-22T10:54:20.612Z,24.83
2019-03-22T10:58:34.270Z,24.27
2019-03-22T11:02:48.149Z,23.90
2019-03-22T11:07:01.228Z,26.97
2019-03-22T11:11:14.998Z,28.40
2019-03-22T11:15:28.317Z,28.93
2019-03-22T11:19:42.159Z,26.20
2019-03-22T11:23:55.295Z,27.03
2019-03-22T11:28:08.225Z,28.37
2019-03-22T11:32:21.247Z,27.93
2019-03-22T11:36:33.972Z,27.97
2019-03-22T11:40:47.026Z,27.30
2019-03-22T11:45:00.409Z,29.30
2019-03-22T11:49:13.580Z,29.60
2019-03-22T11:53:26.504Z,30.67
2019-03-22T11:57:39.844Z,29.53
2019-03-22T12:01:53.507Z,28.43
2019-03-22T12:06:06.890Z,28.40
2019-03-22T12:10:20.412Z,30.67
2019-03-22T12:14:33.519Z,28.53
2019-03-22T12:18:46.632Z,29.67
2019-03-22T12:22:59.765Z,26.17
2019-03-22T12:27:12.891Z,28.53
2019-03-22T12:31:25.924Z,28.63
2019-03-22T12:35:39.166Z,27.77
2019-03-22T12:39:52.109Z,26.97
2019-03-22T12:44:05.317Z,26.10
2019-03-22T12:48:19.242Z,29.70
2019-03-22T12:52:32.403Z,26.93
2019-03-22T12:56:45.635Z,28.87
2019-03-22T13:00:58.463Z,29.57
2019-03-22T13:05:11.695Z,26.43
2019-03-22T13:09:24.933Z,28.30
2019-03-22T13:13:37.928Z,25.10
2019-03-22T13:17:51.161Z,27.70
2019-03-22T13:22:04.864Z,28.73
2019-03-22T13:26:18.508Z,28.70
2019-03-22T13:30:36.444Z,29.47
2019-03-22T13:34:49.252Z,28.17
2019-03-22T13:39:04.623Z,28.73
2019-03-22T13:43:17.577Z,30.53
2019-03-22T13:47:30.813Z,28.10
2019-03-22T13:51:43.706Z,28.60
2019-03-22T13:55:56.762Z,30.97
2019-03-22T14:00:10.524Z,31.63
2019-03-22T14:04:23.720Z,30.80
2019-03-22T14:08:37.305Z,30.13
2019-03-22T14:12:50.583Z,29.07
2019-03-22T14:17:03.552Z,29.30
2019-03-22T14:21:16.650Z,32.10
2019-03-22T14:25:30.185Z,32.83
2019-03-22T14:29:43.624Z,31.17
2019-03-22T14:33:57.011Z,32.60
2019-03-22T14:38:09.931Z,32.20
2019-03-22T14:42:22.967Z,34.23
2019-03-22T14:46:36.621Z,32.80
2019-03-22T14:50:50.268Z,29.93
2019-03-22T14:55:03.911Z,32.23
2019-03-22T14:59:17.201Z,30.10
2019-03-22T15:03:30.168Z,32.40
2019-03-22T15:07:43.188Z,28.57
2019-03-22T15:11:57.040Z,31.57
2019-03-22T15:16:20.227Z,31.07
2019-03-22T15:21:11.877Z,29.13
2019-03-22T15:25:49.769Z,31.53
2019-03-22T15:30:20.411Z,32.33
2019-03-22T15:34:55.355Z,31.83
2019-03-22T15:39:44.317Z,33.33
2019-03-22T15:43:57.879Z,34.17
2019-03-22T15:48:11.513Z,32.30
2019-03-22T15:52:24.823Z,33.27
2019-03-22T15:56:37.751Z,28.80
2019-03-22T16:00:50.784Z,31.77
2019-03-22T16:05:04.876Z,31.47
2019-03-22T16:09:17.879Z,27.53
2019-03-22T16:13:31.637Z,33.37
2019-03-22T16:17:45.020Z,34.80
2019-03-22T16:21:58.724Z,33.40
2019-03-22T16:26:12.365Z,34.33
2019-03-22T16:30:25.843Z,32.17
2019-03-22T16:34:38.615Z,35.70
2019-03-22T16:38:51.671Z,34.07
2019-03-22T16:43:05.176Z,34.87
2019-03-22T16:47:19.136Z,35.17
2019-03-22T16:51:32.716Z,36.20
2019-03-22T16:55:45.928Z,38.00
2019-03-22T16:59:59.576Z,36.60
2019-03-22T17:04:13.218Z,33.83
2019-03-22T17:08:27.155Z,32.07
2019-03-22T17:12:40.384Z,32.87
2019-03-22T17:16:54.396Z,33.53
2019-03-22T17:21:07.631Z,34.53
2019-03-22T17:25:20.818Z,31.63
2019-03-22T17:29:33.801Z,34.23
2019-03-22T17:33:46.995Z,31.23
2019-03-22T17:38:00.249Z,33.57
2019-03-22T17:42:13.024Z,34.73
2019-03-22T17:46:26.081Z,34.13
2019-03-22T17:50:39.396Z,34.30
2019-03-22T17:54:52.250Z,38.07
2019-03-22T17:59:05.288Z,33.50
2019-03-22T18:03:18.685Z,35.03
2019-03-22T18:07:32.118Z,30.90
2019-03-22T18:11:45.358Z,28.27
2019-03-22T18:15:58.365Z,28.60
2019-03-22T18:20:12.334Z,33.27
2019-03-22T18:24:25.303Z,29.00
2019-03-22T18:28:38.505Z,28.80
2019-03-22T18:32:52.273Z,28.63
2019-03-22T18:37:06.232Z,28.07
2019-03-22T18:41:19.364Z,26.30
2019-03-22T18:45:32.999Z,30.67
2019-03-22T18:49:46.234Z,34.27
2019-03-22T18:53:59.143Z,28.33
2019-03-22T18:58:13.399Z,31.57
2019-03-22T19:02:26.285Z,31.37
2019-03-22T19:06:39.321Z,28.53
2019-03-22T19:10:52.608Z,28.40
2019-03-22T19:15:05.674Z,29.80
2019-03-22T19:19:18.820Z,30.47
2019-03-22T19:23:31.900Z,29.90
2019-03-22T19:27:45.124Z,39.57
2019-03-22T19:32:00.277Z,31.43
2019-03-22T19:36:12.960Z,30.87
2019-03-22T19:40:26.260Z,33.03
2019-03-22T19:44:39.555Z,30.43
2019-03-22T19:48:53.548Z,35.07
2019-03-22T19:53:06.701Z,31.57
2019-03-22T19:57:19.620Z,31.33
2019-03-22T20:01:32.641Z,27.23
2019-03-22T20:05:45.877Z,26.07
2019-03-22T20:09:58.863Z,37.77
2019-03-22T20:14:11.955Z,34.00
2019-03-22T20:18:25.698Z,35.87
2019-03-22T20:22:39.112Z,30.03
2019-03-22T20:26:52.783Z,30.93
2019-03-22T20:31:06.049Z,31.17
2019-03-22T20:35:19.037Z,30.60
2019-03-22T20:39:32.019Z,24.00
2019-03-22T20:43:45.289Z,27.47
2019-03-22T20:47:58.525Z,32.17
2019-03-22T20:52:11.348Z,34.17
2019-03-22T20:56:24.523Z,32.47
2019-03-22T21:00:38.155Z,29.13
2019-03-22T21:04:51.375Z,32.00
2019-03-22T21:09:04.600Z,31.03
2019-03-22T21:13:17.684Z,29.37
2019-03-22T21:17:31.044Z,31.83
2019-03-22T21:21:44.502Z,33.80
2019-03-22T21:25:57.741Z,36.67
2019-03-22T21:30:10.579Z,41.67
2019-03-22T21:34:23.702Z,40.87
2019-03-22T21:38:37.435Z,40.37
2019-03-22T21:42:50.714Z,38.80
2019-03-22T21:47:04.016Z,39.30
2019-03-22T21:51:17.336Z,39.50
2019-03-22T21:55:30.842Z,40.13
2019-03-22T21:59:43.723Z,43.77
2019-03-22T22:03:56.851Z,39.43
2019-03-22T22:08:09.987Z,39.13
2019-03-22T22:12:22.937Z,37.67
2019-03-22T22:16:36.118Z,33.70
2019-03-22T22:20:49.577Z,32.07
2019-03-22T22:25:02.820Z,27.93
2019-03-22T22:29:15.648Z,26.57
2019-03-22T22:33:28.777Z,27.80
2019-03-22T22:37:42.216Z,25.83
2019-03-22T22:41:55.799Z,25.20
2019-03-22T22:46:10.524Z,23.83
2019-03-22T22:50:23.572Z,23.97
2019-03-22T22:54:36.604Z,22.53
2019-03-22T22:58:50.608Z,22.33
2019-03-22T23:03:04.063Z,21.40
2019-03-22T23:07:17.372Z,22.00
2019-03-22T23:11:31.090Z,22.33
2019-03-22T23:15:44.864Z,20.53
2019-03-22T23:19:58.218Z,20.77
2019-03-22T23:24:11.790Z,21.03
2019-03-22T23:28:25.037Z,21.97
2019-03-22T23:32:37.956Z,22.03
2019-03-22T23:36:51.131Z,21.67
2019-03-22T23:41:04.325Z,21.50
2019-03-22T23:45:17.176Z,21.83
2019-03-22T23:49:31.493Z,22.27
2019-03-22T23:53:44.973Z,21.40
2019-03-22T23:57:58.287Z,22.07
